sensor_id;sensor_type;location;lat;lon;timestamp;pressure;altitude;pressure_sealevel;temperature;humidity
19890;BME280;10107;51.198;6.824;2023-07-31T00:01:56;-21751.31;;;16.60;100.00
19890;BME280;10107;51.198;6.824;2023-07-31T00:05:57;-21751.31;;;16.60;100.00
19890;BME280;10107;51.198;6.824;2023-07-31T00:09:59;-21752.13;;;16.63;100.00
19890;BME280;10107;51.198;6.824;2023-07-31T00:14:01;-21752.38;;;16.64;100.00
19890;BME280;10107;51.198;6.824;2023-07-31T00:18:04;-21752.91;;;16.66;100.00
19890;BME280;10107;51.198;6.824;2023-07-31T00:22:05;-21753.16;;;16.67;100.00
19890;BME280;10107;51.198;6.824;2023-07-31T00:26:07;-21752.91;;;16.66;100.00
19890;BME280;10107;51.198;6.824;2023-07-31T00:30:09;-21752.78;;;16.66;100.00
19890;BME280;10107;51.198;6.824;2023-07-31T00:34:12;-21752.91;;;16.66;100.00
19890;BME280;10107;51.198;6.824;2023-07-31T00:38:14;-21753.28;;;16.68;100.00
19890;BME280;10107;51.198;6.824;2023-07-31T00:42:16;-21753.81;;;16.70;100.00
19890;BME280;10107;51.198;6.824;2023-07-31T00:46:17;-21754.59;;;16.73;100.00
19890;BME280;10107;51.198;6.824;2023-07-31T00:50:22;-21755.00;;;16.74;100.00
19890;BME280;10107;51.198;6.824;2023-07-31T00:54:24;-21753.81;;;16.70;100.00
19890;BME280;10107;51.198;6.824;2023-07-31T00:58:25;-21753.81;;;16.70;100.00
19890;BME280;10107;51.198;6.824;2023-07-31T01:02:27;-21754.47;;;16.72;100.00
19890;BME280;10107;51.198;6.824;2023-07-31T01:06:34;-21754.34;;;16.72;100.00
19890;BME280;10107;51.198;6.824;2023-07-31T01:10:44;-21754.59;;;16.73;100.00
19890;BME280;10107;51.198;6.824;2023-07-31T01:14:51;-21755.38;;;16.76;100.00
19890;BME280;10107;51.198;6.824;2023-07-31T01:18:53;-21754.75;;;16.73;100.00
19890;BME280;10107;51.198;6.824;2023-07-31T01:23:23;-21754.47;;;16.72;100.00
19890;BME280;10107;51.198;6.824;2023-07-31T01:27:34;-21754.34;;;16.72;100.00
19890;BME280;10107;51.198;6.824;2023-07-31T01:31:41;-21755.00;;;16.74;100.00
19890;BME280;10107;51.198;6.824;2023-07-31T01:35:45;-21754.59;;;16.73;100.00
19890;BME280;10107;51.198;6.824;2023-07-31T01:39:48;-21755.00;;;16.74;100.00
19890;BME280;10107;51.198;6.824;2023-07-31T01:43:51;-21754.75;;;16.73;100.00
19890;BME280;10107;51.198;6.824;2023-07-31T01:47:52;-21754.47;;;16.72;100.00
19890;BME280;10107;51.198;6.824;2023-07-31T01:51:54;-21754.47;;;16.72;100.00
19890;BME280;10107;51.198;6.824;2023-07-31T01:55:56;-21755.13;;;16.75;100.00
19890;BME280;10107;51.198;6.824;2023-07-31T01:59:59;-21755.13;;;16.75;100.00
19890;BME280;10107;51.198;6.824;2023-07-31T02:04:01;-21754.88;;;16.74;100.00
19890;BME280;10107;51.198;6.824;2023-07-31T02:08:03;-21755.00;;;16.74;100.00
19890;BME280;10107;51.198;6.824;2023-07-31T02:12:05;-21755.78;;;16.77;100.00
19890;BME280;10107;51.198;6.824;2023-07-31T02:16:10;-21755.66;;;16.77;100.00
19890;BME280;10107;51.198;6.824;2023-07-31T02:20:11;-21755.53;;;16.76;100.00
19890;BME280;10107;51.198;6.824;2023-07-31T02:24:14;-21755.66;;;16.77;100.00
19890;BME280;10107;51.198;6.824;2023-07-31T02:28:15;-21756.06;;;16.78;100.00
19890;BME280;10107;51.198;6.824;2023-07-31T02:32:18;-21756.31;;;16.79;100.00
19890;BME280;10107;51.198;6.824;2023-07-31T02:36:20;-21756.84;;;16.81;100.00
19890;BME280;10107;51.198;6.824;2023-07-31T02:40:22;-21757.63;;;16.85;100.00
19890;BME280;10107;51.198;6.824;2023-07-31T02:44:23;-21756.84;;;16.81;100.00
19890;BME280;10107;51.198;6.824;2023-07-31T02:48:26;-21756.84;;;16.81;100.00
19890;BME280;10107;51.198;6.824;2023-07-31T02:52:28;-21757.63;;;16.85;100.00
19890;BME280;10107;51.198;6.824;2023-07-31T02:56:30;-21758.03;;;16.86;100.00
19890;BME280;10107;51.198;6.824;2023-07-31T03:00:31;-21758.03;;;16.86;100.00
19890;BME280;10107;51.198;6.824;2023-07-31T03:04:34;-21757.75;;;16.85;100.00
19890;BME280;10107;51.198;6.824;2023-07-31T03:08:36;-21758.41;;;16.88;100.00
19890;BME280;10107;51.198;6.824;2023-07-31T03:12:37;-21758.69;;;16.89;100.00
19890;BME280;10107;51.198;6.824;2023-07-31T03:16:39;-21759.06;;;16.90;100.00
19890;BME280;10107;51.198;6.824;2023-07-31T03:20:43;-21759.97;;;16.94;100.00
19890;BME280;10107;51.198;6.824;2023-07-31T03:24:45;-21760.38;;;16.95;100.00
19890;BME280;10107;51.198;6.824;2023-07-31T03:28:46;-21760.63;;;16.96;100.00
19890;BME280;10107;51.198;6.824;2023-07-31T03:32:49;-21761.03;;;16.98;100.00
19890;BME280;10107;51.198;6.824;2023-07-31T03:36:52;-21760.63;;;16.96;100.00
19890;BME280;10107;51.198;6.824;2023-07-31T03:40:54;-21760.25;;;16.95;100.00
19890;BME280;10107;51.198;6.824;2023-07-31T03:44:56;-21759.97;;;16.94;100.00
19890;BME280;10107;51.198;6.824;2023-07-31T03:48:57;-21760.38;;;16.95;100.00
19890;BME280;10107;51.198;6.824;2023-07-31T03:53:00;-21761.03;;;16.98;100.00
19890;BME280;10107;51.198;6.824;2023-07-31T03:57:02;-21761.94;;;17.01;100.00
19890;BME280;10107;51.198;6.824;2023-07-31T04:01:04;-21761.69;;;17.00;100.00
19890;BME280;10107;51.198;6.824;2023-07-31T04:05:06;-21761.81;;;17.01;100.00
19890;BME280;10107;51.198;6.824;2023-07-31T04:09:09;-21761.81;;;17.01;100.00
19890;BME280;10107;51.198;6.824;2023-07-31T04:13:10;-21762.22;;;17.02;100.00
19890;BME280;10107;51.198;6.824;2023-07-31T04:17:12;-21761.94;;;17.01;100.00
19890;BME280;10107;51.198;6.824;2023-07-31T04:21:14;-21761.03;;;16.98;100.00
19890;BME280;10107;51.198;6.824;2023-07-31T04:25:17;-21759.59;;;16.92;100.00
19890;BME280;10107;51.198;6.824;2023-07-31T04:29:19;-21759.59;;;16.92;100.00
19890;BME280;10107;51.198;6.824;2023-07-31T04:33:20;-21759.47;;;16.92;100.00
19890;BME280;10107;51.198;6.824;2023-07-31T04:37:22;-21759.59;;;16.92;100.00
19890;BME280;10107;51.198;6.824;2023-07-31T04:41:25;-21760.50;;;16.96;100.00
19890;BME280;10107;51.198;6.824;2023-07-31T04:45:26;-21762.34;;;17.03;100.00
19890;BME280;10107;51.198;6.824;2023-07-31T04:49:28;-21764.19;;;17.10;100.00
19890;BME280;10107;51.198;6.824;2023-07-31T04:53:30;-21766.00;;;17.17;100.00
19890;BME280;10107;51.198;6.824;2023-07-31T04:57:33;-21768.38;;;17.27;100.00
19890;BME280;10107;51.198;6.824;2023-07-31T05:01:34;-21773.47;;;17.47;100.00
19890;BME280;10107;51.198;6.824;2023-07-31T05:05:36;-21778.31;;;17.66;100.00
19890;BME280;10107;51.198;6.824;2023-07-31T05:09:38;-21783.56;;;17.86;100.00
19890;BME280;10107;51.198;6.824;2023-07-31T05:13:41;-21785.78;;;17.95;100.00
19890;BME280;10107;51.198;6.824;2023-07-31T05:17:43;-21785.41;;;17.93;100.00
19890;BME280;10107;51.198;6.824;2023-07-31T05:21:45;-21784.34;;;17.89;100.00
19890;BME280;10107;51.198;6.824;2023-07-31T05:29:17;-21782.13;;;17.80;100.00
19890;BME280;10107;51.198;6.824;2023-07-31T05:33:19;-21781.47;;;17.78;100.00
19890;BME280;10107;51.198;6.824;2023-07-31T05:37:21;-21782.13;;;17.80;100.00
19890;BME280;10107;51.198;6.824;2023-07-31T05:41:23;-21781.47;;;17.78;100.00
19890;BME280;10107;51.198;6.824;2023-07-31T05:45:26;-21781.19;;;17.77;100.00
19890;BME280;10107;51.198;6.824;2023-07-31T05:49:28;-21781.47;;;17.78;100.00
19890;BME280;10107;51.198;6.824;2023-07-31T05:53:30;-21781.06;;;17.76;100.00
19890;BME280;10107;51.198;6.824;2023-07-31T05:57:32;-21781.19;;;17.77;100.00
19890;BME280;10107;51.198;6.824;2023-07-31T06:01:35;-21780.41;;;17.74;100.00
19890;BME280;10107;51.198;6.824;2023-07-31T06:05:36;-21778.59;;;17.67;100.00
19890;BME280;10107;51.198;6.824;2023-07-31T06:09:38;-21776.88;;;17.60;100.00
19890;BME280;10107;51.198;6.824;2023-07-31T06:13:40;-21775.31;;;17.54;100.00
19890;BME280;10107;51.198;6.824;2023-07-31T06:17:43;-21772.56;;;17.43;100.00
19890;BME280;10107;51.198;6.824;2023-07-31T06:21:44;-21771.50;;;17.39;100.00
19890;BME280;10107;51.198;6.824;2023-07-31T06:25:46;-21770.59;;;17.35;100.00
19890;BME280;10107;51.198;6.824;2023-07-31T06:29:48;-21770.59;;;17.35;100.00
19890;BME280;10107;51.198;6.824;2023-07-31T06:33:54;-21769.41;;;17.31;100.00
19890;BME280;10107;51.198;6.824;2023-07-31T06:37:56;-21767.31;;;17.22;100.00
19890;BME280;10107;51.198;6.824;2023-07-31T06:41:58;-21766.81;;;17.20;100.00
19890;BME280;10107;51.198;6.824;2023-07-31T06:46:04;-21768.75;;;17.28;100.00
19890;BME280;10107;51.198;6.824;2023-07-31T06:50:08;-21771.50;;;17.39;100.00
19890;BME280;10107;51.198;6.824;2023-07-31T06:54:10;-21772.94;;;17.45;100.00
19890;BME280;10107;51.198;6.824;2023-07-31T06:58:12;-21773.34;;;17.46;100.00
19890;BME280;10107;51.198;6.824;2023-07-31T07:02:13;-21773.75;;;17.48;100.00
19890;BME280;10107;51.198;6.824;2023-07-31T07:06:17;-21773.47;;;17.47;100.00
19890;BME280;10107;51.198;6.824;2023-07-31T07:10:19;-21772.03;;;17.41;100.00
19890;BME280;10107;51.198;6.824;2023-07-31T07:14:20;-21771.91;;;17.40;100.00
19890;BME280;10107;51.198;6.824;2023-07-31T07:18:22;-21770.72;;;17.36;100.00
19890;BME280;10107;51.198;6.824;2023-07-31T07:22:26;-21768.50;;;17.27;100.00
19890;BME280;10107;51.198;6.824;2023-07-31T07:26:28;-21768.91;;;17.29;100.00
19890;BME280;10107;51.198;6.824;2023-07-31T07:30:30;-21769.41;;;17.31;100.00
19890;BME280;10107;51.198;6.824;2023-07-31T07:34:32;-21769.69;;;17.32;100.00
19890;BME280;10107;51.198;6.824;2023-07-31T07:38:35;-21770.22;;;17.34;100.00
19890;BME280;10107;51.198;6.824;2023-07-31T07:42:39;-21771.91;;;17.40;100.00
19890;BME280;10107;51.198;6.824;2023-07-31T07:46:40;-21773.88;;;17.48;100.00
19890;BME280;10107;51.198;6.824;2023-07-31T07:50:43;-21773.75;;;17.48;100.00
19890;BME280;10107;51.198;6.824;2023-07-31T07:54:46;-21774.53;;;17.51;100.00
19890;BME280;10107;51.198;6.824;2023-07-31T07:58:48;-21776.22;;;17.57;100.00
19890;BME280;10107;51.198;6.824;2023-07-31T08:02:51;-21777.00;;;17.60;100.00
19890;BME280;10107;51.198;6.824;2023-07-31T08:06:52;-21777.81;;;17.64;100.00
19890;BME280;10107;51.198;6.824;2023-07-31T08:10:55;-21771.78;;;17.40;100.00
19890;BME280;10107;51.198;6.824;2023-07-31T08:14:57;-21775.84;;;17.56;100.00
19890;BME280;10107;51.198;6.824;2023-07-31T08:19:00;-21779.25;;;17.69;100.00
19890;BME280;10107;51.198;6.824;2023-07-31T08:23:02;-21779.09;;;17.69;100.00
19890;BME280;10107;51.198;6.824;2023-07-31T08:27:05;-21779.63;;;17.71;100.00
19890;BME280;10107;51.198;6.824;2023-07-31T08:31:07;-21779.50;;;17.70;100.00
19890;BME280;10107;51.198;6.824;2023-07-31T08:35:09;-21782.78;;;17.83;100.00
19890;BME280;10107;51.198;6.824;2023-07-31T08:39:10;-21786.03;;;17.96;100.00
19890;BME280;10107;51.198;6.824;2023-07-31T08:43:13;-21787.22;;;18.00;100.00
19890;BME280;10107;51.198;6.824;2023-07-31T08:47:15;-21785.66;;;17.94;100.00
19890;BME280;10107;51.198;6.824;2023-07-31T08:51:17;-21786.03;;;17.96;100.00
19890;BME280;10107;51.198;6.824;2023-07-31T08:55:19;-21788.66;;;18.06;100.00
19890;BME280;10107;51.198;6.824;2023-07-31T08:59:26;-21788.53;;;18.06;100.00
19890;BME280;10107;51.198;6.824;2023-07-31T09:03:33;-21785.66;;;17.94;100.00
19890;BME280;10107;51.198;6.824;2023-07-31T09:07:35;-21784.22;;;17.89;100.00
19890;BME280;10107;51.198;6.824;2023-07-31T09:11:37;-21784.75;;;17.91;100.00
19890;BME280;10107;51.198;6.824;2023-07-31T09:15:44;-21785.13;;;17.92;100.00
19890;BME280;10107;51.198;6.824;2023-07-31T09:19:46;-21787.22;;;18.00;100.00
19890;BME280;10107;51.198;6.824;2023-07-31T09:23:47;-21791.81;;;18.18;100.00
19890;BME280;10107;51.198;6.824;2023-07-31T09:27:50;-21797.56;;;18.41;100.00
19890;BME280;10107;51.198;6.824;2023-07-31T09:31:54;-21796.63;;;18.37;100.00
19890;BME280;10107;51.198;6.824;2023-07-31T09:35:58;-21792.97;;;18.23;100.00
19890;BME280;10107;51.198;6.824;2023-07-31T09:40:00;-21790.50;;;18.13;100.00
19890;BME280;10107;51.198;6.824;2023-07-31T09:44:03;-21788.00;;;18.04;100.00
19890;BME280;10107;51.198;6.824;2023-07-31T09:48:09;-21788.53;;;18.06;100.00
19890;BME280;10107;51.198;6.824;2023-07-31T09:52:11;-21789.84;;;18.11;100.00
19890;BME280;10107;51.198;6.824;2023-07-31T09:56:13;-21791.16;;;18.16;100.00
19890;BME280;10107;51.198;6.824;2023-07-31T10:00:16;-21788.41;;;18.05;100.00
19890;BME280;10107;51.198;6.824;2023-07-31T10:04:20;-21786.69;;;17.98;100.00
19890;BME280;10107;51.198;6.824;2023-07-31T10:08:28;-21791.16;;;18.16;100.00
19890;BME280;10107;51.198;6.824;2023-07-31T10:12:32;-21796.78;;;18.38;100.00
19890;BME280;10107;51.198;6.824;2023-07-31T10:16:37;-21797.44;;;18.40;100.00
19890;BME280;10107;51.198;6.824;2023-07-31T10:20:41;-21796.13;;;18.35;100.00
19890;BME280;10107;51.198;6.824;2023-07-31T10:24:43;-21794.16;;;18.28;100.00
19890;BME280;10107;51.198;6.824;2023-07-31T10:28:46;-21799.66;;;18.49;100.00
19890;BME280;10107;51.198;6.824;2023-07-31T10:32:51;-21802.53;;;18.60;100.00
19890;BME280;10107;51.198;6.824;2023-07-31T10:37:26;-21816.91;;;19.17;100.00
19890;BME280;10107;51.198;6.824;2023-07-31T10:41:29;-21838.81;;;20.03;100.00
19890;BME280;10107;51.198;6.824;2023-07-31T10:45:33;-21855.75;;;20.70;100.00
19890;BME280;10107;51.198;6.824;2023-07-31T10:49:38;-21863.44;;;21.00;100.00
19890;BME280;10107;51.198;6.824;2023-07-31T10:53:42;-21858.50;;;20.81;100.00
19890;BME280;10107;51.198;6.824;2023-07-31T10:57:44;-21851.72;;;20.54;100.00
19890;BME280;10107;51.198;6.824;2023-07-31T11:01:50;-21843.00;;;20.20;100.00
19890;BME280;10107;51.198;6.824;2023-07-31T11:05:53;-21834.50;;;19.86;100.00
19890;BME280;10107;51.198;6.824;2023-07-31T11:10:02;-21831.66;;;19.75;100.00
19890;BME280;10107;51.198;6.824;2023-07-31T11:14:05;-21826.94;;;19.56;100.00
19890;BME280;10107;51.198;6.824;2023-07-31T11:18:08;-21834.66;;;19.87;100.00
19890;BME280;10107;51.198;6.824;2023-07-31T11:22:11;-21838.56;;;20.02;100.00
19890;BME280;10107;51.198;6.824;2023-07-31T11:26:15;-21843.63;;;20.22;100.00
19890;BME280;10107;51.198;6.824;2023-07-31T11:30:18;-21859.78;;;20.86;100.00
19890;BME280;10107;51.198;6.824;2023-07-31T11:34:20;-21863.56;;;21.01;100.00
19890;BME280;10107;51.198;6.824;2023-07-31T11:38:22;-21857.72;;;20.77;100.00
19890;BME280;10107;51.198;6.824;2023-07-31T11:42:26;-21850.16;;;20.48;100.00
19890;BME280;10107;51.198;6.824;2023-07-31T11:46:30;-21847.03;;;20.35;100.00
19890;BME280;10107;51.198;6.824;2023-07-31T11:50:32;-21843.00;;;20.20;100.00
19890;BME280;10107;51.198;6.824;2023-07-31T11:54:34;-21842.34;;;20.17;100.00
19890;BME280;10107;51.198;6.824;2023-07-31T11:58:38;-21848.19;;;20.40;100.00
19890;BME280;10107;51.198;6.824;2023-07-31T12:02:41;-21851.72;;;20.54;100.00
19890;BME280;10107;51.198;6.824;2023-07-31T12:06:43;-21847.69;;;20.38;100.00
19890;BME280;10107;51.198;6.824;2023-07-31T12:10:45;-21845.06;;;20.28;100.00
19890;BME280;10107;51.198;6.824;2023-07-31T12:14:49;-21843.00;;;20.20;100.00
19890;BME280;10107;51.198;6.824;2023-07-31T12:18:52;-21839.22;;;20.05;100.00
19890;BME280;10107;51.198;6.824;2023-07-31T12:22:56;-21835.16;;;19.89;100.00
19890;BME280;10107;51.198;6.824;2023-07-31T12:26:58;-21843.78;;;20.23;100.00
19890;BME280;10107;51.198;6.824;2023-07-31T12:31:01;-21847.03;;;20.35;100.00
19890;BME280;10107;51.198;6.824;2023-07-31T12:35:06;-21851.84;;;20.54;100.00
19890;BME280;10107;51.198;6.824;2023-07-31T12:39:08;-21856.16;;;20.71;100.00
19890;BME280;10107;51.198;6.824;2023-07-31T12:43:10;-21861.88;;;20.94;100.00
19890;BME280;10107;51.198;6.824;2023-07-31T12:47:13;-21871.63;;;21.32;100.00
19890;BME280;10107;51.198;6.824;2023-07-31T12:51:15;-21876.44;;;21.51;100.00
19890;BME280;10107;51.198;6.824;2023-07-31T12:55:17;-21865.66;;;21.09;100.00
19890;BME280;10107;51.198;6.824;2023-07-31T12:59:19;-21860.56;;;20.89;100.00
19890;BME280;10107;51.198;6.824;2023-07-31T13:03:22;-21869.03;;;21.22;100.00
19890;BME280;10107;51.198;6.824;2023-07-31T13:07:24;-21884.25;;;21.82;100.00
19890;BME280;10107;51.198;6.824;2023-07-31T13:11:25;-21891.50;;;22.11;100.00
19890;BME280;10107;51.198;6.824;2023-07-31T13:15:27;-21884.25;;;21.82;100.00
19890;BME280;10107;51.198;6.824;2023-07-31T13:19:30;-21872.28;;;21.35;100.00
19890;BME280;10107;51.198;6.824;2023-07-31T13:23:32;-21865.13;;;21.07;100.00
19890;BME280;10107;51.198;6.824;2023-07-31T13:27:34;-21870.84;;;21.29;100.00
19890;BME280;10107;51.198;6.824;2023-07-31T13:31:36;-21893.34;;;22.18;100.00
19890;BME280;10107;51.198;6.824;2023-07-31T13:35:40;-21904.63;;;22.63;100.00
19890;BME280;10107;51.198;6.824;2023-07-31T13:39:42;-21913.31;;;22.97;97.31
19890;BME280;10107;51.198;6.824;2023-07-31T13:43:45;-21914.63;;;23.02;99.47
19890;BME280;10107;51.198;6.824;2023-07-31T13:47:46;-21921.09;;;23.28;94.76
19890;BME280;10107;51.198;6.824;2023-07-31T13:51:49;-21911.75;;;22.91;96.08
19890;BME280;10107;51.198;6.824;2023-07-31T13:55:51;-21905.41;;;22.66;97.61
19890;BME280;10107;51.198;6.824;2023-07-31T13:59:53;-21906.06;;;22.68;99.01
19890;BME280;10107;51.198;6.824;2023-07-31T14:03:54;-21892.69;;;22.15;99.28
19890;BME280;10107;51.198;6.824;2023-07-31T14:07:58;-21881.00;;;21.69;100.00
19890;BME280;10107;51.198;6.824;2023-07-31T14:16:01;-21862.41;;;20.96;100.00
19890;BME280;10107;51.198;6.824;2023-07-31T14:20:03;-21856.16;;;20.71;100.00
19890;BME280;10107;51.198;6.824;2023-07-31T14:24:06;-21851.19;;;20.52;100.00
19890;BME280;10107;51.198;6.824;2023-07-31T14:28:08;-21847.28;;;20.36;100.00
19890;BME280;10107;51.198;6.824;2023-07-31T14:32:10;-21846.13;;;20.32;100.00
19890;BME280;10107;51.198;6.824;2023-07-31T14:36:12;-21846.13;;;20.32;100.00
19890;BME280;10107;51.198;6.824;2023-07-31T14:40:15;-21847.53;;;20.37;100.00
19890;BME280;10107;51.198;6.824;2023-07-31T14:44:16;-21859.78;;;20.86;100.00
19890;BME280;10107;51.198;6.824;2023-07-31T14:48:18;-21871.88;;;21.33;100.00
19890;BME280;10107;51.198;6.824;2023-07-31T14:52:20;-21878.53;;;21.60;100.00
19890;BME280;10107;51.198;6.824;2023-07-31T14:56:24;-21883.22;;;21.78;100.00
19890;BME280;10107;51.198;6.824;2023-07-31T15:00:27;-21884.63;;;21.84;100.00
19890;BME280;10107;51.198;6.824;2023-07-31T15:04:29;-21879.44;;;21.63;100.00
19890;BME280;10107;51.198;6.824;2023-07-31T15:08:31;-21865.78;;;21.09;100.00
19890;BME280;10107;51.198;6.824;2023-07-31T15:12:34;-21860.97;;;20.90;100.00
19890;BME280;10107;51.198;6.824;2023-07-31T15:16:38;-21857.72;;;20.77;100.00
19890;BME280;10107;51.198;6.824;2023-07-31T15:20:39;-21858.75;;;20.82;100.00
19890;BME280;10107;51.198;6.824;2023-07-31T15:24:41;-21860.84;;;20.90;100.00
19890;BME280;10107;51.198;6.824;2023-07-31T15:28:47;-21860.56;;;20.89;100.00
19890;BME280;10107;51.198;6.824;2023-07-31T15:32:50;-21856.81;;;20.74;100.00
19890;BME280;10107;51.198;6.824;2023-07-31T15:36:52;-21854.31;;;20.64;100.00
19890;BME280;10107;51.198;6.824;2023-07-31T15:40:53;-21849.50;;;20.45;100.00
19890;BME280;10107;51.198;6.824;2023-07-31T15:44:56;-21848.47;;;20.41;100.00
19890;BME280;10107;51.198;6.824;2023-07-31T15:48:58;-21847.03;;;20.35;100.00
19890;BME280;10107;51.198;6.824;2023-07-31T15:53:00;-21846.50;;;20.33;100.00
19890;BME280;10107;51.198;6.824;2023-07-31T15:57:02;-21844.81;;;20.27;100.00
19890;BME280;10107;51.198;6.824;2023-07-31T16:01:05;-21841.03;;;20.12;100.00
19890;BME280;10107;51.198;6.824;2023-07-31T16:05:07;-21837.63;;;19.98;100.00
19890;BME280;10107;51.198;6.824;2023-07-31T16:09:08;-21835.03;;;19.88;100.00
19890;BME280;10107;51.198;6.824;2023-07-31T16:13:10;-21832.31;;;19.77;100.00
19890;BME280;10107;51.198;6.824;2023-07-31T16:17:13;-21828.25;;;19.62;100.00
19890;BME280;10107;51.198;6.824;2023-07-31T16:21:15;-21824.47;;;19.47;100.00
19890;BME280;10107;51.198;6.824;2023-07-31T16:25:17;-21821.06;;;19.33;100.00
19890;BME280;10107;51.198;6.824;2023-07-31T16:29:19;-21818.34;;;19.23;100.00
19890;BME280;10107;51.198;6.824;2023-07-31T16:33:22;-21816.38;;;19.15;100.00
19890;BME280;10107;51.198;6.824;2023-07-31T16:37:24;-21813.38;;;19.03;100.00
19890;BME280;10107;51.198;6.824;2023-07-31T16:41:26;-21809.19;;;18.87;100.00
19890;BME280;10107;51.198;6.824;2023-07-31T16:45:28;-21806.97;;;18.78;100.00
19890;BME280;10107;51.198;6.824;2023-07-31T16:49:31;-21806.56;;;18.76;100.00
19890;BME280;10107;51.198;6.824;2023-07-31T16:53:33;-21805.28;;;18.71;100.00
19890;BME280;10107;51.198;6.824;2023-07-31T16:57:35;-21803.03;;;18.63;100.00
19890;BME280;10107;51.198;6.824;2023-07-31T17:01:36;-21801.09;;;18.55;100.00
19890;BME280;10107;51.198;6.824;2023-07-31T17:05:39;-21799.00;;;18.47;100.00
19890;BME280;10107;51.198;6.824;2023-07-31T17:09:41;-21797.03;;;18.39;100.00
19890;BME280;10107;51.198;6.824;2023-07-31T17:13:43;-21795.72;;;18.34;100.00
19890;BME280;10107;51.198;6.824;2023-07-31T17:17:45;-21795.59;;;18.33;100.00
19890;BME280;10107;51.198;6.824;2023-07-31T17:21:48;-21795.22;;;18.32;100.00
19890;BME280;10107;51.198;6.824;2023-07-31T17:25:50;-21795.06;;;18.31;100.00
19890;BME280;10107;51.198;6.824;2023-07-31T17:29:52;-21791.69;;;18.18;100.00
19890;BME280;10107;51.198;6.824;2023-07-31T17:33:54;-21787.63;;;18.02;100.00
19890;BME280;10107;51.198;6.824;2023-07-31T17:37:57;-21784.75;;;17.91;100.00
19890;BME280;10107;51.198;6.824;2023-07-31T17:41:58;-21781.06;;;17.76;100.00
19890;BME280;10107;51.198;6.824;2023-07-31T17:46:01;-21778.84;;;17.68;100.00
19890;BME280;10107;51.198;6.824;2023-07-31T17:50:03;-21776.34;;;17.58;100.00
19890;BME280;10107;51.198;6.824;2023-07-31T17:54:06;-21774.13;;;17.49;100.00
19890;BME280;10107;51.198;6.824;2023-07-31T17:58:08;-21772.31;;;17.42;100.00
19890;BME280;10107;51.198;6.824;2023-07-31T18:02:10;-21771.00;;;17.37;100.00
19890;BME280;10107;51.198;6.824;2023-07-31T18:06:12;-21771.38;;;17.38;100.00
19890;BME280;10107;51.198;6.824;2023-07-31T18:10:15;-21770.22;;;17.34;100.00
19890;BME280;10107;51.198;6.824;2023-07-31T18:14:16;-21768.38;;;17.27;100.00
19890;BME280;10107;51.198;6.824;2023-07-31T18:18:21;-21768.25;;;17.26;100.00
19890;BME280;10107;51.198;6.824;2023-07-31T18:22:23;-21767.72;;;17.24;100.00
19890;BME280;10107;51.198;6.824;2023-07-31T18:26:26;-21766.81;;;17.20;100.00
19890;BME280;10107;51.198;6.824;2023-07-31T18:30:27;-21766.00;;;17.17;100.00
19890;BME280;10107;51.198;6.824;2023-07-31T18:34:30;-21765.75;;;17.16;100.00
19890;BME280;10107;51.198;6.824;2023-07-31T18:38:31;-21765.75;;;17.16;100.00
19890;BME280;10107;51.198;6.824;2023-07-31T18:42:34;-21766.00;;;17.17;100.00
19890;BME280;10107;51.198;6.824;2023-07-31T18:46:36;-21766.16;;;17.18;100.00
19890;BME280;10107;51.198;6.824;2023-07-31T18:50:40;-21764.97;;;17.13;100.00
19890;BME280;10107;51.198;6.824;2023-07-31T18:54:42;-21764.84;;;17.13;100.00
19890;BME280;10107;51.198;6.824;2023-07-31T18:58:45;-21765.34;;;17.15;100.00
19890;BME280;10107;51.198;6.824;2023-07-31T19:02:48;-21766.00;;;17.17;100.00
19890;BME280;10107;51.198;6.824;2023-07-31T19:06:50;-21765.22;;;17.14;100.00
19890;BME280;10107;51.198;6.824;2023-07-31T19:10:51;-21763.91;;;17.09;100.00
19890;BME280;10107;51.198;6.824;2023-07-31T19:14:54;-21762.75;;;17.05;100.00
19890;BME280;10107;51.198;6.824;2023-07-31T19:18:57;-21760.91;;;16.97;100.00
19890;BME280;10107;51.198;6.824;2023-07-31T19:22:58;-21760.63;;;16.96;100.00
19890;BME280;10107;51.198;6.824;2023-07-31T19:27:00;-21760.25;;;16.95;100.00
19890;BME280;10107;51.198;6.824;2023-07-31T19:31:03;-21759.19;;;16.91;100.00
19890;BME280;10107;51.198;6.824;2023-07-31T19:35:05;-21759.31;;;16.91;100.00
19890;BME280;10107;51.198;6.824;2023-07-31T19:39:07;-21759.84;;;16.93;100.00
19890;BME280;10107;51.198;6.824;2023-07-31T19:43:10;-21761.03;;;16.98;100.00
19890;BME280;10107;51.198;6.824;2023-07-31T19:47:13;-21761.44;;;16.99;100.00
19890;BME280;10107;51.198;6.824;2023-07-31T19:51:15;-21762.22;;;17.02;100.00
19890;BME280;10107;51.198;6.824;2023-07-31T19:55:16;-21763.38;;;17.07;100.00
19890;BME280;10107;51.198;6.824;2023-07-31T19:59:18;-21763.66;;;17.08;100.00
19890;BME280;10107;51.198;6.824;2023-07-31T20:03:21;-21763.38;;;17.07;100.00
19890;BME280;10107;51.198;6.824;2023-07-31T20:07:23;-21763.13;;;17.06;100.00
19890;BME280;10107;51.198;6.824;2023-07-31T20:11:25;-21762.47;;;17.03;100.00
19890;BME280;10107;51.198;6.824;2023-07-31T20:15:26;-21762.34;;;17.03;100.00
19890;BME280;10107;51.198;6.824;2023-07-31T20:19:29;-21763.13;;;17.06;100.00
19890;BME280;10107;51.198;6.824;2023-07-31T20:23:31;-21763.13;;;17.06;100.00
19890;BME280;10107;51.198;6.824;2023-07-31T20:27:33;-21763.38;;;17.07;100.00
19890;BME280;10107;51.198;6.824;2023-07-31T20:31:34;-21763.38;;;17.07;100.00
19890;BME280;10107;51.198;6.824;2023-07-31T20:35:39;-21763.00;;;17.06;100.00
19890;BME280;10107;51.198;6.824;2023-07-31T20:39:41;-21763.91;;;17.09;100.00
19890;BME280;10107;51.198;6.824;2023-07-31T20:43:43;-21764.97;;;17.13;100.00
19890;BME280;10107;51.198;6.824;2023-07-31T20:47:44;-21765.50;;;17.15;100.00
19890;BME280;10107;51.198;6.824;2023-07-31T20:51:48;-21765.88;;;17.17;100.00
19890;BME280;10107;51.198;6.824;2023-07-31T20:55:50;-21765.09;;;17.14;100.00
19890;BME280;10107;51.198;6.824;2023-07-31T20:59:51;-21765.63;;;17.16;100.00